Time;durP1;ratioP1;P1;durP2;ratioP2;P2;SDS_P1;SDS_P2;PMS_P1;PMS_P2;Temp;Humidity;BMP_temperature;BMP_pressure;BME280_temperature;BME280_humidity;BME280_pressure;Samples;Min_cycle;Max_cycle;Signal;HPM_P1;HPM_P2
2023/11/27 00:02:20;;;;;;;15.93;7.10;;;-0.50;99.90;;;;;;2585233;54;20926;31
2023/11/27 00:04:58;;;;;;;14.70;6.40;;;-0.50;99.90;;;;;;2585276;54;20103;31
2023/11/27 00:07:32;;;;;;;12.30;5.97;;;-0.40;99.90;;;;;;2585123;54;20085;31
2023/11/27 00:10:05;;;;;;;17.03;6.87;;;-0.50;99.90;;;;;;2584890;54;20033;31
2023/11/27 00:12:40;;;;;;;12.02;5.80;;;-0.50;99.90;;;;;;2584938;54;20834;31
2023/11/27 00:15:13;;;;;;;14.13;5.97;;;-0.50;99.90;;;;;;2584760;54;20957;31
2023/11/27 00:17:47;;;;;;;11.27;5.33;;;-0.50;99.90;;;;;;2585368;54;20837;31
2023/11/27 00:20:24;;;;;;;16.40;6.00;;;-0.20;99.90;;;;;;2585487;54;20027;31
2023/11/27 00:22:57;;;;;;;17.70;6.25;;;-0.40;99.90;;;;;;2585250;54;20909;31
2023/11/27 00:25:30;;;;;;;10.68;5.15;;;-0.50;99.90;;;;;;2603542;46;20856;31
2023/11/27 00:28:03;;;;;;;13.30;6.00;;;-0.50;99.90;;;;;;2585416;54;21265;31
2023/11/27 00:30:38;;;;;;;12.40;5.22;;;-0.50;99.90;;;;;;2585018;54;20952;31
2023/11/27 00:33:10;;;;;;;13.20;6.60;;;;;;;;;;2585068;54;20855;31
2023/11/27 00:35:46;;;;;;;13.00;5.75;;;-0.50;99.90;;;;;;2584613;54;20833;31
2023/11/27 00:38:19;;;;;;;13.00;5.55;;;-0.50;99.90;;;;;;2584926;54;20863;31
2023/11/27 00:40:53;;;;;;;16.80;6.50;;;-0.50;99.90;;;;;;2584770;54;20026;31
2023/11/27 00:43:26;;;;;;;13.37;6.00;;;-0.50;99.90;;;;;;2603186;47;22457;31
2023/11/27 00:46:00;;;;;;;14.30;5.55;;;-0.50;99.90;;;;;;2585226;54;21128;31
2023/11/27 00:48:35;;;;;;;13.88;6.57;;;-0.50;99.90;;;;;;2585136;54;21002;31
2023/11/27 00:51:13;;;;;;;11.45;4.93;;;-0.50;99.90;;;;;;2585356;54;21127;31
2023/11/27 00:53:48;;;;;;;13.95;5.35;;;-0.50;99.90;;;;;;2603917;47;20037;31
2023/11/27 00:56:22;;;;;;;14.65;5.50;;;-0.50;99.90;;;;;;2584946;54;20996;31
2023/11/27 00:58:55;;;;;;;14.70;5.85;;;-0.50;99.90;;;;;;2683070;39;21081;31
2023/11/27 01:01:28;;;;;;;13.80;5.45;;;-0.60;99.90;;;;;;2584772;54;20983;31
2023/11/27 01:04:01;;;;;;;12.57;5.63;;;-0.40;99.90;;;;;;2585123;54;20049;31
2023/11/27 01:06:38;;;;;;;9.75;5.35;;;-0.60;99.90;;;;;;2584978;54;20030;31
2023/11/27 01:09:11;;;;;;;16.17;6.20;;;-0.60;99.90;;;;;;2682977;39;21118;31
2023/11/27 01:11:44;;;;;;;18.50;6.68;;;-0.60;99.90;;;;;;2584955;54;20026;31
2023/11/27 01:14:17;;;;;;;12.18;5.20;;;-0.60;99.90;;;;;;2584607;54;20105;31
2023/11/27 01:16:51;;;;;;;16.37;5.77;;;-0.60;99.90;;;;;;2584614;54;20058;31
2023/11/27 01:19:24;;;;;;;16.80;5.68;;;-0.60;99.90;;;;;;2584824;54;20944;31
2023/11/27 01:22:00;;;;;;;14.02;6.15;;;-0.60;99.90;;;;;;2585071;54;20798;31
2023/11/27 01:24:36;;;;;;;13.23;5.77;;;-0.60;99.90;;;;;;2585024;54;20991;31
2023/11/27 01:27:09;;;;;;;14.95;6.40;;;-0.70;99.90;;;;;;2585780;54;21167;31
2023/11/27 01:29:42;;;;;;;12.03;5.60;;;-0.70;99.90;;;;;;2585873;54;20929;31
2023/11/27 01:32:15;;;;;;;10.68;5.15;;;-0.70;99.90;;;;;;2585577;54;20917;31
2023/11/27 01:34:50;;;;;;;12.00;5.80;;;-0.70;99.90;;;;;;2585888;54;20026;31
2023/11/27 01:37:26;;;;;;;10.43;5.55;;;-0.70;99.90;;;;;;2585012;54;20034;31
2023/11/27 01:40:00;;;;;;;12.07;5.85;;;-0.80;99.90;;;;;;2604844;46;20940;31
2023/11/27 01:42:33;;;;;;;12.65;5.80;;;-0.70;99.90;;;;;;2603814;46;19961;31
2023/11/27 01:45:09;;;;;;;13.10;5.90;;;-0.80;99.90;;;;;;2585856;54;20089;31
2023/11/27 01:47:42;;;;;;;12.73;5.35;;;-0.80;99.90;;;;;;2585816;54;21896;31
2023/11/27 01:50:15;;;;;;;10.65;5.95;;;-0.80;99.90;;;;;;2585780;54;21010;31
2023/11/27 01:52:53;;;;;;;9.50;4.97;;;-0.80;99.90;;;;;;2585556;54;20990;31
2023/11/27 01:55:28;;;;;;;13.50;5.80;;;-0.90;99.90;;;;;;2585850;54;20974;31
2023/11/27 01:58:00;;;;;;;13.85;5.05;;;-0.80;99.90;;;;;;2585822;54;20885;31
2023/11/27 02:00:35;;;;;;;11.65;6.35;;;-0.80;99.90;;;;;;2585578;54;21019;31
2023/11/27 02:03:08;;;;;;;12.03;5.47;;;-0.80;99.90;;;;;;2585749;54;20921;31
2023/11/27 02:05:44;;;;;;;13.87;6.00;;;-0.90;99.90;;;;;;2585598;54;20052;31
2023/11/27 02:08:21;;;;;;;17.08;6.18;;;-0.90;99.90;;;;;;2585804;54;20100;31
2023/11/27 02:10:55;;;;;;;13.80;6.00;;;-1.00;99.90;;;;;;2585924;54;22432;31
2023/11/27 02:13:30;;;;;;;14.80;5.88;;;-1.00;99.90;;;;;;2585320;54;20111;31
2023/11/27 02:16:03;;;;;;;11.90;5.30;;;-1.00;99.90;;;;;;2585634;54;20116;31
2023/11/27 02:18:38;;;;;;;10.93;5.63;;;-1.00;99.90;;;;;;2585404;54;21223;31
2023/11/27 02:21:12;;;;;;;11.80;6.10;;;-1.00;99.90;;;;;;2585662;54;20022;31
2023/11/27 02:23:49;;;;;;;12.48;5.40;;;-1.10;99.90;;;;;;2585653;54;20022;31
2023/11/27 02:26:22;;;;;;;9.63;4.47;;;-1.00;99.90;;;;;;2585493;54;20027;31
2023/11/27 02:28:56;;;;;;;11.60;4.75;;;-1.10;99.90;;;;;;2585757;54;20026;31
2023/11/27 02:31:30;;;;;;;12.70;5.00;;;-1.10;99.90;;;;;;2585659;54;20084;31
2023/11/27 02:34:03;;;;;;;11.30;5.43;;;-1.10;99.90;;;;;;2585196;54;20068;31
2023/11/27 02:36:39;;;;;;;13.80;6.20;;;-1.10;99.90;;;;;;2585823;54;20886;31
2023/11/27 02:39:16;;;;;;;14.38;5.63;;;-1.10;99.90;;;;;;2683593;39;21123;31
2023/11/27 02:41:50;;;;;;;11.05;5.40;;;-1.20;99.90;;;;;;2604561;46;22411;31
2023/11/27 02:44:23;;;;;;;15.45;6.20;;;-1.20;99.90;;;;;;2585418;54;20998;31
2023/11/27 02:46:56;;;;;;;11.05;4.95;;;-1.30;99.90;;;;;;2585414;54;20123;31
2023/11/27 02:49:31;;;;;;;12.20;5.60;;;-1.30;99.90;;;;;;2585577;54;21029;31
2023/11/27 02:52:04;;;;;;;12.65;5.32;;;-1.30;99.90;;;;;;2683167;39;21113;31
2023/11/27 02:54:41;;;;;;;13.30;5.15;;;-1.40;99.90;;;;;;2585580;54;22452;31
2023/11/27 02:57:16;;;;;;;10.65;5.35;;;-1.40;99.90;;;;;;2585576;54;20026;31
2023/11/27 02:59:50;;;;;;;13.82;6.40;;;-1.40;99.90;;;;;;2585712;54;21177;31
2023/11/27 03:02:23;;;;;;;11.45;5.40;;;-1.50;99.90;;;;;;2585605;54;20894;31
2023/11/27 03:04:58;;;;;;;12.45;5.70;;;-1.40;99.90;;;;;;2585477;54;20027;31
2023/11/27 03:07:31;;;;;;;14.10;5.77;;;-1.40;99.90;;;;;;2603930;46;20985;31
2023/11/27 03:10:08;;;;;;;10.60;5.43;;;-1.50;99.90;;;;;;2604007;46;20050;31
2023/11/27 03:12:42;;;;;;;11.80;5.50;;;-1.60;99.90;;;;;;2585423;54;20985;31
2023/11/27 03:15:15;;;;;;;9.50;5.10;;;-1.60;99.90;;;;;;2585349;54;20062;31
2023/11/27 03:17:49;;;;;;;10.40;4.90;;;-1.60;99.90;;;;;;2585336;54;20946;31
2023/11/27 03:20:24;;;;;;;16.20;5.95;;;-1.60;99.90;;;;;;2584999;54;20970;31
2023/11/27 03:22:57;;;;;;;13.70;5.10;;;-1.70;99.90;;;;;;2603818;46;21162;31
2023/11/27 03:25:33;;;;;;;10.67;5.27;;;-1.70;99.90;;;;;;2585551;54;20026;31
2023/11/27 03:28:07;;;;;;;14.93;5.85;;;1.00;99.90;;;;;;2585734;54;20022;31
2023/11/27 03:30:41;;;;;;;9.00;4.27;;;-1.80;99.90;;;;;;2584456;54;20993;31
2023/11/27 03:33:14;;;;;;;13.73;6.57;;;-1.80;99.90;;;;;;2683538;39;22374;31
2023/11/27 03:35:49;;;;;;;13.55;5.85;;;-1.90;99.90;;;;;;2585388;54;20038;31
2023/11/27 03:38:22;;;;;;;10.85;6.07;;;-1.90;99.90;;;;;;2585253;54;20053;31
2023/11/27 03:40:59;;;;;;;12.93;5.73;;;-1.90;99.90;;;;;;2585476;54;20153;31
2023/11/27 03:43:33;;;;;;;12.30;5.60;;;-1.90;99.90;;;;;;2603576;46;20298;31
2023/11/27 03:46:08;;;;;;;12.55;5.40;;;-2.00;99.90;;;;;;2603376;46;20828;31
2023/11/27 03:48:42;;;;;;;10.80;5.30;;;-2.00;99.90;;;;;;2585284;54;20060;31
2023/11/27 03:51:16;;;;;;;11.30;5.57;;;-2.00;99.90;;;;;;2585892;54;22400;31
2023/11/27 03:53:48;;;;;;;12.27;5.27;;;-2.00;99.90;;;;;;2585585;54;22450;31
2023/11/27 03:56:24;;;;;;;9.30;5.10;;;-2.00;99.90;;;;;;2585298;54;20831;31
2023/11/27 03:58:58;;;;;;;12.10;5.60;;;-2.10;99.90;;;;;;2585062;54;20053;31
2023/11/27 04:01:31;;;;;;;12.55;6.00;;;-2.10;99.90;;;;;;2585376;54;20920;31
2023/11/27 04:04:04;;;;;;;13.23;6.27;;;-2.10;99.90;;;;;;2585344;54;20928;31
2023/11/27 04:06:37;;;;;;;12.00;5.10;;;-2.10;99.90;;;;;;2604160;46;22378;31
2023/11/27 04:09:13;;;;;;;13.87;6.30;;;-2.20;99.90;;;;;;2604176;46;22389;31
2023/11/27 04:11:45;;;;;;;11.43;5.05;;;-2.20;99.90;;;;;;2585064;54;20756;31
2023/11/27 04:14:23;;;;;;;12.23;5.22;;;-2.20;99.90;;;;;;2682909;39;21384;31
2023/11/27 04:16:57;;;;;;;14.55;6.40;;;-2.20;99.90;;;;;;2584980;54;21014;31
2023/11/27 04:19:32;;;;;;;16.45;7.32;;;-2.30;99.90;;;;;;2585246;54;20886;31
2023/11/27 04:22:07;;;;;;;21.35;7.20;;;-1.90;99.90;;;;;;2585191;54;20030;31
2023/11/27 04:24:41;;;;;;;18.55;7.50;;;-2.30;99.90;;;;;;2682893;39;20424;31
2023/11/27 04:27:17;;;;;;;15.52;7.47;;;-2.30;99.90;;;;;;2585125;54;20048;31
2023/11/27 04:29:53;;;;;;;24.35;8.95;;;-2.30;99.90;;;;;;2603141;46;20869;31
2023/11/27 04:32:27;;;;;;;17.10;7.30;;;-2.20;99.90;;;;;;2585309;54;20972;31
2023/11/27 04:35:00;;;;;;;22.10;7.45;;;-2.40;99.90;;;;;;2585333;54;20972;31
2023/11/27 04:37:33;;;;;;;18.27;7.17;;;-2.40;99.90;;;;;;2585677;54;22332;31
2023/11/27 04:40:10;;;;;;;20.92;7.88;;;-2.50;99.90;;;;;;2585229;54;20127;31
2023/11/27 04:42:43;;;;;;;28.10;8.90;;;-2.50;99.90;;;;;;2584874;54;20027;31
2023/11/27 04:45:19;;;;;;;28.80;10.10;;;-2.50;99.90;;;;;;2604089;47;22394;31
2023/11/27 04:47:53;;;;;;;28.88;9.90;;;-2.60;99.90;;;;;;2585223;54;20026;31
2023/11/27 04:50:26;;;;;;;23.15;9.80;;;-2.60;99.90;;;;;;2584801;54;20160;31
2023/11/27 04:52:59;;;;;;;20.45;8.80;;;-2.60;99.90;;;;;;2585007;54;20053;31
2023/11/27 04:55:33;;;;;;;22.70;8.15;;;-2.60;99.90;;;;;;2584807;54;20053;31
2023/11/27 04:58:07;;;;;;;20.23;6.97;;;-2.70;99.90;;;;;;2585102;54;20926;31
2023/11/27 05:00:43;;;;;;;24.70;7.83;;;-2.70;99.90;;;;;;2585050;54;20907;31
2023/11/27 05:03:16;;;;;;;;;;;-2.70;99.90;;;;;;2586249;54;20909;31
2023/11/27 05:05:49;;;;;;;17.90;6.30;;;-2.80;99.90;;;;;;2585942;54;19934;31
2023/11/27 05:08:22;;;;;;;18.20;5.50;;;-2.80;99.90;;;;;;2604636;46;21377;31
2023/11/27 05:10:55;;;;;;;22.35;6.55;;;-2.80;99.90;;;;;;2585888;54;20038;31
2023/11/27 05:13:28;;;;;;;11.15;5.18;;;-2.90;99.90;;;;;;2604137;46;20957;31
2023/11/27 05:16:04;;;;;;;19.27;6.45;;;-3.00;99.90;;;;;;2586083;54;21896;31
2023/11/27 05:18:38;;;;;;;14.65;6.00;;;-2.30;99.90;;;;;;2684100;39;22443;31
2023/11/27 05:21:14;;;;;;;18.77;7.17;;;-3.00;99.90;;;;;;2585731;54;20777;31
2023/11/27 05:23:48;;;;;;;20.25;7.53;;;-2.60;99.90;;;;;;2585812;54;20064;31
2023/11/27 05:26:23;;;;;;;18.88;5.97;;;-3.00;99.90;;;;;;2585790;54;20085;31
2023/11/27 05:28:57;;;;;;;24.45;8.30;;;-3.10;99.90;;;;;;2604399;46;20909;31
2023/11/27 05:31:33;;;;;;;22.75;8.65;;;-3.10;99.90;;;;;;2586040;54;20030;31
2023/11/27 05:34:07;;;;;;;;;;;-3.10;99.90;;;;;;2585868;54;20080;31
2023/11/27 05:36:40;;;;;;;23.07;8.93;;;-3.00;99.90;;;;;;2585910;54;20052;31
2023/11/27 05:39:14;;;;;;;20.30;9.17;;;-2.40;99.90;;;;;;2585774;54;20806;31
2023/11/27 05:41:49;;;;;;;18.25;8.38;;;-3.20;99.90;;;;;;2585983;54;21135;31
2023/11/27 05:44:23;;;;;;;22.00;9.00;;;-3.20;99.90;;;;;;2585731;54;20022;31
2023/11/27 05:47:00;;;;;;;18.83;8.30;;;-3.20;99.90;;;;;;2683464;39;21440;31
2023/11/27 05:49:34;;;;;;;21.40;8.73;;;-3.10;99.90;;;;;;2604462;46;20036;31
2023/11/27 05:52:08;;;;;;;22.90;8.90;;;-3.20;99.90;;;;;;2585690;54;20184;31
2023/11/27 05:54:41;;;;;;;16.50;9.02;;;-3.20;99.90;;;;;;2604019;46;19990;31
2023/11/27 05:57:14;;;;;;;22.60;9.05;;;-3.30;99.90;;;;;;2604017;46;20058;31
2023/11/27 05:59:48;;;;;;;24.65;11.80;;;-3.30;99.90;;;;;;2586006;54;21893;31
2023/11/27 06:02:23;;;;;;;38.13;15.37;;;-3.20;99.90;;;;;;2586034;54;21504;31
2023/11/27 06:04:57;;;;;;;27.30;13.93;;;-3.20;99.90;;;;;;2585731;54;20027;31
2023/11/27 06:07:30;;;;;;;27.37;13.27;;;-3.30;99.90;;;;;;2585604;54;20034;31
2023/11/27 06:10:03;;;;;;;25.63;13.38;;;-3.30;99.90;;;;;;2585435;54;20246;31
2023/11/27 06:12:38;;;;;;;30.95;13.52;;;-3.40;99.90;;;;;;2585232;54;20945;31
2023/11/27 06:15:14;;;;;;;44.97;17.00;;;-3.40;99.90;;;;;;2585556;54;20049;31
2023/11/27 06:17:51;;;;;;;51.93;20.00;;;-3.40;99.90;;;;;;2585643;54;20042;31
2023/11/27 06:20:24;;;;;;;51.08;21.77;;;-3.30;99.90;;;;;;2585993;54;21115;31
2023/11/27 06:22:58;;;;;;;79.00;25.58;;;-3.30;99.90;;;;;;2585384;54;21001;31
2023/11/27 06:25:34;;;;;;;109.78;34.75;;;-3.30;99.90;;;;;;2604196;46;20112;31
2023/11/27 06:28:13;;;;;;;110.93;33.47;;;-3.40;99.90;;;;;;2586741;46;20912;31
2023/11/27 06:30:47;;;;;;;106.00;32.55;;;-3.30;99.90;;;;;;2585697;54;20078;31
2023/11/27 06:33:24;;;;;;;128.80;38.40;;;-3.40;99.90;;;;;;2604635;46;19934;31
2023/11/27 06:35:57;;;;;;;168.63;40.03;;;-3.40;99.90;;;;;;2585621;54;20062;31
2023/11/27 06:38:30;;;;;;;98.97;29.35;;;-3.40;99.90;;;;;;2585522;54;20925;31
2023/11/27 06:41:03;;;;;;;92.70;30.00;;;-3.40;99.90;;;;;;2585617;54;20770;31
2023/11/27 06:43:39;;;;;;;75.60;28.33;;;-3.40;99.90;;;;;;2603867;46;20110;31
2023/11/27 06:46:14;;;;;;;63.90;23.80;;;-3.40;99.90;;;;;;2585492;54;20273;31
2023/11/27 06:48:50;;;;;;;59.80;23.40;;;-2.80;99.90;;;;;;2585378;54;20801;31
2023/11/27 06:51:23;;;;;;;;;;;-3.40;99.90;;;;;;2585698;54;21057;31
2023/11/27 06:53:55;;;;;;;46.00;18.20;;;-3.40;99.90;;;;;;2585745;54;19946;31
2023/11/27 06:56:33;;;;;;;55.38;23.40;;;-3.50;99.90;;;;;;2585479;54;20990;31
2023/11/27 06:59:07;;;;;;;66.20;22.90;;;-3.00;99.90;;;;;;2603889;46;20119;31
2023/11/27 07:01:42;;;;;;;63.75;23.33;;;-3.40;99.90;;;;;;2585335;54;20944;31
2023/11/27 07:04:19;;;;;;;57.80;22.25;;;-3.30;99.90;;;;;;2585408;54;20787;31
2023/11/27 07:06:52;;;;;;;67.33;25.17;;;-3.40;99.90;;;;;;2585668;54;21905;31
2023/11/27 07:09:27;;;;;;;168.37;51.53;;;-3.40;99.90;;;;;;2603777;46;20947;31
2023/11/27 07:12:00;;;;;;;101.15;36.15;;;-3.30;99.90;;;;;;2585635;54;20034;31
2023/11/27 07:14:35;;;;;;;100.50;31.30;;;-3.00;99.90;;;;;;2683156;39;21244;31
2023/11/27 07:17:08;;;;;;;90.65;31.42;;;-2.30;99.90;;;;;;2604050;46;20053;31
2023/11/27 07:19:46;;;;;;;89.77;30.73;;;-1.60;99.90;;;;;;2584981;54;20155;31
2023/11/27 07:22:20;;;;;;;92.38;33.88;;;-0.80;99.90;;;;;;2584967;54;20762;31
2023/11/27 07:24:53;;;;;;;82.10;31.45;;;-0.10;99.90;;;;;;2585134;54;20774;31
2023/11/27 07:27:28;;;;;;;80.70;32.17;;;0.60;99.90;;;;;;2585253;54;20507;31
2023/11/27 07:30:04;;;;;;;84.30;32.25;;;1.10;99.90;;;;;;2585517;54;20026;31
2023/11/27 07:32:36;;;;;;;51.60;23.30;;;1.70;99.90;;;;;;2604070;46;21143;31
2023/11/27 07:35:15;;;;;;;33.90;16.33;;;2.30;99.90;;;;;;2584984;54;20086;31
2023/11/27 07:37:48;;;;;;;30.70;15.25;;;2.90;99.90;;;;;;2585437;54;20033;31
2023/11/27 07:40:21;;;;;;;37.60;19.90;;;3.30;99.90;;;;;;2604175;46;20063;31
2023/11/27 07:42:54;;;;;;;29.42;15.82;;;3.90;99.90;;;;;;2683703;39;22451;31
2023/11/27 07:45:30;;;;;;;33.07;17.07;;;4.50;99.90;;;;;;2585254;54;20987;31
2023/11/27 07:48:03;;;;;;;30.17;17.90;;;4.80;99.90;;;;;;2585354;54;20938;31
2023/11/27 07:50:39;;;;;;;29.63;16.73;;;5.00;99.90;;;;;;2585320;54;20053;31
2023/11/27 07:53:12;;;;;;;32.83;15.18;;;5.20;99.90;;;;;;2585418;54;19935;31
2023/11/27 07:55:46;;;;;;;25.08;14.00;;;5.30;99.90;;;;;;2585468;54;20052;31
2023/11/27 07:58:21;;;;;;;26.40;13.70;;;5.30;99.90;;;;;;2683302;39;21038;31
2023/11/27 08:00:56;;;;;;;29.15;14.70;;;5.60;99.90;;;;;;2585094;54;20787;31
2023/11/27 08:03:29;;;;;;;23.53;14.17;;;5.90;99.90;;;;;;2603534;46;20849;31
2023/11/27 08:06:09;;;;;;;26.98;12.50;;;6.00;99.90;;;;;;2584853;54;20961;31
2023/11/27 08:08:42;;;;;;;27.83;15.27;;;6.30;99.90;;;;;;2585094;54;20882;31
2023/11/27 08:11:14;;;;;;;22.40;13.15;;;6.30;99.90;;;;;;2585429;54;21141;31
2023/11/27 08:13:48;;;;;;;20.60;11.35;;;6.30;99.90;;;;;;2585106;54;20790;31
2023/11/27 08:16:21;;;;;;;22.10;12.02;;;6.30;99.90;;;;;;2683357;39;22381;31
2023/11/27 08:18:55;;;;;;;23.95;11.40;;;6.60;99.90;;;;;;2585361;54;20133;31
2023/11/27 08:21:35;;;;;;;22.05;10.20;;;6.90;99.90;;;;;;2603684;46;20030;31
2023/11/27 08:24:08;;;;;;;20.70;10.60;;;7.10;99.90;;;;;;2585149;54;20938;31
2023/11/27 08:26:42;;;;;;;16.98;8.70;;;6.90;99.90;;;;;;2585082;54;20053;31
2023/11/27 08:29:17;;;;;;;15.50;8.63;;;7.00;99.90;;;;;;2585328;54;20809;31
2023/11/27 08:31:50;;;;;;;15.73;7.43;;;7.10;99.90;;;;;;2603175;46;20049;31
2023/11/27 08:34:23;;;;;;;14.10;7.13;;;7.10;99.90;;;;;;2584574;54;20029;31
2023/11/27 08:37:04;;;;;;;16.13;7.57;;;7.10;99.90;;;;;;2584891;54;21083;31
2023/11/27 08:39:38;;;;;;;14.35;7.82;;;7.10;99.90;;;;;;2585189;54;20030;31
2023/11/27 08:42:12;;;;;;;15.10;7.20;;;7.20;99.90;;;;;;2585000;54;20913;31
2023/11/27 08:44:45;;;;;;;15.95;8.02;;;7.40;99.90;;;;;;2585051;54;20894;31
2023/11/27 08:47:19;;;;;;;11.60;7.10;;;7.50;99.90;;;;;;2603415;47;20930;31
2023/11/27 08:49:52;;;;;;;14.57;8.07;;;7.50;99.90;;;;;;2584976;54;20738;31
2023/11/27 08:52:28;;;;;;;13.93;7.38;;;7.50;99.90;;;;;;2603808;47;20027;31
2023/11/27 08:55:05;;;;;;;13.95;7.15;;;7.60;99.90;;;;;;2585143;54;20026;31
2023/11/27 08:57:39;;;;;;;16.13;7.63;;;7.70;99.90;;;;;;2584871;54;20983;31
2023/11/27 09:00:17;;;;;;;14.00;7.10;;;7.60;99.90;;;;;;2584658;54;20029;31
2023/11/27 09:02:51;;;;;;;13.43;7.13;;;7.50;99.90;;;;;;2584850;54;20085;31
2023/11/27 09:05:26;;;;;;;15.48;7.72;;;7.50;99.90;;;;;;2603424;47;20945;31
2023/11/27 09:08:05;;;;;;;10.05;6.15;;;7.50;99.90;;;;;;2682509;39;21661;31
2023/11/27 09:10:41;;;;;;;12.43;6.50;;;7.70;99.90;;;;;;2584688;54;20927;31
2023/11/27 09:13:15;;;;;;;13.48;6.78;;;7.60;99.90;;;;;;2603419;47;20923;31
2023/11/27 09:15:48;;;;;;;9.35;6.05;;;7.60;99.90;;;;;;2584521;54;20027;31
2023/11/27 09:18:22;;;;;;;11.97;6.10;;;7.60;99.90;;;;;;2584857;54;21662;31
2023/11/27 09:20:55;;;;;;;12.35;6.70;;;7.60;99.90;;;;;;2585068;54;20030;31
2023/11/27 09:23:32;;;;;;;11.30;6.28;;;7.60;99.90;;;;;;2584608;54;20782;31
2023/11/27 09:26:06;;;;;;;9.90;6.40;;;7.50;99.90;;;;;;2584719;54;20056;31
2023/11/27 09:28:40;;;;;;;9.10;6.10;;;7.30;99.90;;;;;;2584385;54;20940;31
2023/11/27 09:31:14;;;;;;;12.68;6.38;;;7.20;99.90;;;;;;2603026;47;20812;31
2023/11/27 09:33:49;;;;;;;12.85;7.60;;;7.10;99.90;;;;;;2603058;47;21011;31
2023/11/27 09:36:23;;;;;;;9.63;5.75;;;7.20;99.90;;;;;;2602362;47;20987;31
2023/11/27 09:38:59;;;;;;;10.88;6.03;;;7.10;99.90;;;;;;2584600;54;20030;31
2023/11/27 09:41:35;;;;;;;8.73;5.68;;;7.10;99.90;;;;;;2584767;54;21718;31
2023/11/27 09:44:10;;;;;;;9.68;5.57;;;7.00;99.90;;;;;;2584353;54;20031;31
2023/11/27 09:46:46;;;;;;;10.10;6.33;;;6.90;99.90;;;;;;2584709;54;20963;31
2023/11/27 09:49:23;;;;;;;12.70;6.50;;;6.80;99.90;;;;;;2585279;54;20023;31
2023/11/27 09:51:59;;;;;;;10.50;6.20;;;6.90;99.90;;;;;;2585785;54;20820;31
2023/11/27 09:54:39;;;;;;;11.45;5.65;;;6.90;99.90;;;;;;2603994;46;21117;31
2023/11/27 09:57:14;;;;;;;8.85;4.68;;;6.90;99.90;;;;;;2585529;54;21028;31
2023/11/27 09:59:49;;;;;;;8.20;5.60;;;6.80;99.90;;;;;;2585495;54;20033;31
2023/11/27 10:02:25;;;;;;;9.80;5.80;;;6.80;99.90;;;;;;2585354;54;20077;31
2023/11/27 10:05:04;;;;;;;12.40;5.90;;;6.70;99.90;;;;;;2585447;54;20082;31
2023/11/27 10:10:44;;;;;;;8.00;4.90;;;6.70;99.90;;;;;;2585270;54;20030;31
2023/11/27 10:13:18;;;;;;;8.70;5.20;;;6.70;99.90;;;;;;2585533;54;21024;31
2023/11/27 10:16:13;;;;;;;7.97;5.30;;;6.60;99.90;;;;;;2585398;54;20901;31
2023/11/27 10:31:31;;;;;;;8.70;4.20;;;6.20;99.90;;;;;;2585140;54;20018;31
2023/11/27 10:34:05;;;;;;;11.75;4.45;;;6.10;99.90;;;;;;2585248;54;20033;31
2023/11/27 10:36:41;;;;;;;13.73;6.33;;;6.00;99.90;;;;;;2585193;54;20042;31
2023/11/27 10:39:18;;;;;;;8.80;4.70;;;6.00;99.90;;;;;;2585212;54;20845;31
2023/11/27 10:41:53;;;;;;;9.60;5.00;;;5.90;99.90;;;;;;2584985;54;19935;31
2023/11/27 10:44:27;;;;;;;7.78;4.25;;;5.90;99.90;;;;;;2585352;54;20038;31
2023/11/27 10:47:07;;;;;;;8.00;3.60;;;5.80;99.90;;;;;;2585556;54;21021;31
2023/11/27 10:49:42;;;;;;;13.20;4.10;;;5.80;99.90;;;;;;2585294;54;20026;31
2023/11/27 10:52:16;;;;;;;7.55;3.50;;;5.80;99.90;;;;;;2585263;54;20046;31
2023/11/27 10:54:51;;;;;;;9.90;4.05;;;5.70;99.90;;;;;;2585327;54;20026;31
2023/11/27 10:57:26;;;;;;;10.27;3.90;;;5.70;99.90;;;;;;2585398;54;20956;31
2023/11/27 11:00:01;;;;;;;8.30;4.10;;;5.70;99.90;;;;;;2585138;54;20052;31
2023/11/27 11:02:38;;;;;;;15.35;4.60;;;5.70;99.90;;;;;;2585172;54;20030;31
2023/11/27 11:05:14;;;;;;;15.50;7.13;;;5.60;99.90;;;;;;2585323;54;20143;31
2023/11/27 11:07:50;;;;;;;13.20;5.20;;;5.40;99.90;;;;;;2603780;46;20037;31
2023/11/27 11:10:27;;;;;;;11.20;5.37;;;5.30;99.90;;;;;;2585497;54;20250;31
2023/11/27 11:13:02;;;;;;;11.80;4.60;;;5.30;99.90;;;;;;2585505;54;20940;31
2023/11/27 11:15:39;;;;;;;;;;;5.30;99.90;;;;;;2585536;54;20962;31
2023/11/27 11:18:17;;;;;;;11.15;4.70;;;5.20;99.90;;;;;;2584836;54;19998;31
2023/11/27 11:21:09;;;;;;;7.65;3.85;;;5.10;99.90;;;;;;2585435;54;21053;31
2023/11/27 11:23:48;;;;;;;11.40;5.10;;;5.10;99.90;;;;;;2585385;54;20023;31
2023/11/27 11:26:32;;;;;;;16.60;5.88;;;5.10;99.90;;;;;;2603806;46;20061;31
2023/11/27 11:29:25;;;;;;;13.48;6.45;;;5.10;99.90;;;;;;2585402;54;20097;31
2023/11/27 11:32:04;;;;;;;11.77;5.33;;;5.10;99.90;;;;;;2585550;54;20031;31
2023/11/27 11:34:44;;;;;;;13.10;6.25;;;5.00;99.90;;;;;;2585483;54;20053;31
2023/11/27 11:37:20;;;;;;;12.97;6.37;;;5.10;99.90;;;;;;2585346;54;19946;31
2023/11/27 11:39:57;;;;;;;14.43;6.72;;;5.00;99.90;;;;;;2585433;54;20838;31
2023/11/27 11:42:44;;;;;;;13.80;4.85;;;5.00;99.90;;;;;;2683362;39;21105;31
2023/11/27 11:45:24;;;;;;;8.98;4.95;;;5.00;99.90;;;;;;2754166;31;21237;31
2023/11/27 11:48:07;;;;;;;11.93;7.00;;;4.90;99.90;;;;;;2585251;54;20798;31
2023/11/27 11:50:46;;;;;;;13.60;6.80;;;4.90;99.90;;;;;;2584704;54;21011;31
2023/11/27 11:53:43;;;;;;;14.90;8.30;;;4.80;99.90;;;;;;2584053;54;20941;31
2023/11/27 11:56:20;;;;;;;17.85;7.80;;;4.70;99.90;;;;;;2585190;54;20952;31
2023/11/27 11:58:57;;;;;;;12.93;6.88;;;4.70;99.90;;;;;;2604025;46;20034;31
2023/11/27 12:01:33;;;;;;;10.52;6.25;;;4.70;99.90;;;;;;2585206;54;20052;31
2023/11/27 12:04:09;;;;;;;11.30;5.72;;;4.60;99.90;;;;;;2585553;54;19941;31
2023/11/27 12:06:48;;;;;;;12.00;6.15;;;4.50;99.90;;;;;;2603702;46;21167;31
2023/11/27 12:09:22;;;;;;;13.80;6.00;;;4.40;99.90;;;;;;2603731;46;20936;31
2023/11/27 12:11:58;;;;;;;10.02;5.40;;;4.40;99.90;;;;;;2584851;54;20112;31
2023/11/27 12:14:33;;;;;;;11.48;5.10;;;4.30;99.90;;;;;;2584906;54;20917;31
2023/11/27 12:17:09;;;;;;;8.10;4.50;;;4.20;99.90;;;;;;2585205;54;20034;31
2023/11/27 12:19:43;;;;;;;13.40;5.30;;;4.20;99.90;;;;;;2603096;46;20115;31
2023/11/27 12:22:21;;;;;;;11.77;5.35;;;4.10;99.90;;;;;;2585088;54;20823;31
2023/11/27 12:24:55;;;;;;;7.57;3.92;;;4.10;99.90;;;;;;2584704;54;20904;31
2023/11/27 12:27:34;;;;;;;9.35;3.75;;;4.00;99.90;;;;;;2584988;54;20034;31
2023/11/27 12:30:09;;;;;;;8.40;3.57;;;4.00;99.90;;;;;;2584875;54;20026;31
2023/11/27 12:32:42;;;;;;;8.82;3.83;;;4.00;99.90;;;;;;2683583;39;20911;31
2023/11/27 12:35:18;;;;;;;8.63;3.93;;;4.00;99.90;;;;;;2585286;54;21030;31
2023/11/27 12:37:56;;;;;;;9.87;3.70;;;3.90;99.90;;;;;;2584762;54;20848;31
2023/11/27 12:40:33;;;;;;;8.20;3.70;;;3.80;99.90;;;;;;2585110;54;20919;31
2023/11/27 12:43:08;;;;;;;203.98;64.15;;;3.70;99.90;;;;;;2584807;54;20925;31
2023/11/27 12:45:41;;;;;;;38.27;16.97;;;3.70;99.90;;;;;;2584794;54;21179;31
2023/11/27 12:48:15;;;;;;;33.38;15.85;;;3.70;99.90;;;;;;2585082;54;20246;31
2023/11/27 12:50:48;;;;;;;14.90;7.50;;;3.60;99.90;;;;;;2583950;54;20035;31
2023/11/27 12:53:26;;;;;;;84.32;36.03;;;3.60;99.90;;;;;;2585085;54;20054;31
2023/11/27 12:56:00;;;;;;;82.25;33.60;;;3.60;99.90;;;;;;2603499;47;20145;31
2023/11/27 12:58:38;;;;;;;49.85;19.85;;;3.50;99.90;;;;;;2603910;47;20057;31
2023/11/27 13:01:13;;;;;;;83.53;30.77;;;3.50;99.90;;;;;;2584947;54;20057;31
2023/11/27 13:03:47;;;;;;;202.25;65.35;;;3.40;99.90;;;;;;2585063;54;22000;31
2023/11/27 13:06:27;;;;;;;370.95;115.85;;;3.30;99.90;;;;;;2585272;54;20030;31
2023/11/27 13:09:05;;;;;;;149.70;53.97;;;3.30;99.90;;;;;;2584797;54;20060;31
2023/11/27 13:11:39;;;;;;;21.30;12.30;;;3.30;99.90;;;;;;2584488;54;20243;31
2023/11/27 13:14:17;;;;;;;15.80;7.20;;;3.30;99.90;;;;;;2584946;54;20037;31
2023/11/27 13:16:56;;;;;;;13.77;5.00;;;3.40;99.90;;;;;;2584848;54;20062;31
2023/11/27 13:22:05;;;;;;;7.05;2.95;;;3.40;99.90;;;;;;2585330;54;20932;31
2023/11/27 13:24:41;;;;;;;7.22;3.25;;;3.40;99.90;;;;;;2683861;39;21113;31
2023/11/27 13:27:16;;;;;;;8.85;3.03;;;3.40;99.90;;;;;;2585430;54;20188;31
2023/11/27 13:29:50;;;;;;;3.73;2.13;;;3.40;99.90;;;;;;2585498;54;20054;31
2023/11/27 13:32:24;;;;;;;11.43;5.20;;;3.40;99.90;;;;;;2585833;54;22472;31
2023/11/27 13:34:59;;;;;;;16.05;6.13;;;3.40;99.90;;;;;;2604033;46;20050;31
2023/11/27 13:37:37;;;;;;;9.55;4.50;;;3.40;99.90;;;;;;2604411;46;20026;31
2023/11/27 13:40:14;;;;;;;11.60;4.85;;;3.40;99.90;;;;;;2585588;54;20062;31
2023/11/27 13:42:50;;;;;;;11.20;4.75;;;3.40;99.90;;;;;;2603854;46;20944;31
2023/11/27 13:45:32;;;;;;;10.20;3.95;;;3.40;99.90;;;;;;2585500;54;20034;31
2023/11/27 13:48:12;;;;;;;42.75;12.70;;;3.40;99.90;;;;;;2585714;54;20816;31
2023/11/27 13:50:49;;;;;;;19.15;7.00;;;3.30;99.90;;;;;;2754364;31;21795;31